Time;durP1;ratioP1;P1;durP2;ratioP2;P2;SDS_P1;SDS_P2;PMS_P1;PMS_P2;Temp;Humidity;BMP_temperature;BMP_pressure;BME280_temperature;BME280_humidity;BME280_pressure;Samples;Min_cycle;Max_cycle;Signal;HPM_P1;HPM_P2
2021/04/09 00:01:53;;;;;;;1.50;0.20;;;5.90;86.90;;;;;;5076808;28;20200;-62
2021/04/09 00:04:19;;;;;;;1.48;0.20;;;5.80;87.00;;;;;;5099258;28;20214;-63
2021/04/09 00:06:45;;;;;;;3.10;2.20;;;5.70;87.20;;;;;;5091237;28;20191;-62
2021/04/09 00:09:11;;;;;;;1.50;0.37;;;5.70;87.80;;;;;;5096842;28;20272;-62
2021/04/09 00:11:37;;;;;;;1.48;0.20;;;5.70;87.50;;;;;;5095760;28;20164;-62
2021/04/09 00:14:04;;;;;;;1.45;0.20;;;5.70;87.40;;;;;;5093420;28;20271;-64
2021/04/09 00:16:30;;;;;;;1.42;0.20;;;5.70;87.40;;;;;;5092024;28;20176;-62
2021/04/09 00:18:55;;;;;;;1.40;0.20;;;5.70;87.30;;;;;;5098214;28;20277;-62
2021/04/09 00:21:21;;;;;;;1.47;0.20;;;5.70;87.10;;;;;;5099545;28;20646;-62
2021/04/09 00:23:47;;;;;;;1.40;0.20;;;5.70;87.40;;;;;;5091123;28;20197;-62
2021/04/09 00:26:12;;;;;;;1.40;0.20;;;5.60;88.70;;;;;;5074997;28;20242;-62
2021/04/09 00:28:46;;;;;;;1.40;0.20;;;5.50;88.90;;;;;;5092086;28;20200;-68
2021/04/09 00:31:12;;;;;;;1.40;0.20;;;5.50;89.30;;;;;;5098223;28;20209;-61
2021/04/09 00:33:37;;;;;;;1.40;0.20;;;5.40;90.10;;;;;;5098934;28;20189;-61
2021/04/09 00:36:03;;;;;;;1.40;0.20;;;5.50;89.70;;;;;;5089062;28;20238;-61
2021/04/09 00:38:29;;;;;;;1.40;0.20;;;5.50;90.10;;;;;;5093261;28;20217;-64
2021/04/09 00:40:54;;;;;;;1.50;0.20;;;5.50;90.20;;;;;;5076753;28;20450;-62
2021/04/09 00:43:20;;;;;;;1.40;0.20;;;5.50;90.00;;;;;;5092765;28;20203;-62
2021/04/09 00:45:45;;;;;;;1.40;0.20;;;5.50;90.20;;;;;;5081039;28;20192;-62
2021/04/09 00:48:11;;;;;;;1.40;0.20;;;5.40;90.30;;;;;;5084607;28;20683;-62
2021/04/09 00:50:37;;;;;;;1.40;0.20;;;5.40;90.50;;;;;;5058270;28;20264;-62
2021/04/09 00:53:07;;;;;;;1.45;0.20;;;5.40;90.70;;;;;;5057796;28;20592;-62
2021/04/09 00:55:33;;;;;;;1.45;0.20;;;5.40;91.30;;;;;;5085701;28;20611;-62
2021/04/09 00:57:59;;;;;;;1.43;0.20;;;5.30;91.10;;;;;;5081767;28;20195;-62
2021/04/09 01:00:26;;;;;;;1.45;0.20;;;5.40;91.20;;;;;;5074215;28;20424;-62
2021/04/09 01:02:53;;;;;;;1.45;0.20;;;5.20;91.40;;;;;;5077498;28;20199;-62
2021/04/09 01:05:19;;;;;;;1.42;0.20;;;5.20;91.80;;;;;;5060806;28;20208;-62
2021/04/09 01:07:45;;;;;;;1.45;0.20;;;5.10;92.00;;;;;;5075198;28;20204;-62
2021/04/09 01:10:13;;;;;;;1.47;0.20;;;5.00;92.60;;;;;;5079651;28;20193;-62
2021/04/09 01:12:38;;;;;;;1.50;0.40;;;5.00;92.70;;;;;;5077968;28;20458;-62
2021/04/09 01:15:06;;;;;;;1.50;0.20;;;5.00;92.80;;;;;;5070070;28;21593;-62
2021/04/09 01:17:40;;;;;;;1.50;0.20;;;5.00;93.00;;;;;;5080098;28;20773;-62
2021/04/09 01:20:45;;;;;;;1.40;0.20;;;5.00;93.30;;;;;;5078472;28;20202;-62
2021/04/09 01:23:49;;;;;;;1.60;0.60;;;5.00;93.40;;;;;;5065654;28;20571;-62
2021/04/09 01:26:53;;;;;;;1.45;0.20;;;4.90;93.40;;;;;;5076560;28;20275;-62
2021/04/09 01:29:40;;;;;;;1.45;0.20;;;4.90;94.00;;;;;;5069665;28;20212;-62
2021/04/09 01:32:08;;;;;;;1.42;0.20;;;4.90;94.20;;;;;;5077134;28;20176;-62
2021/04/09 01:34:43;;;;;;;1.40;0.20;;;4.80;94.30;;;;;;5088294;28;20180;-62
2021/04/09 01:37:30;;;;;;;1.45;0.20;;;4.90;94.50;;;;;;5074617;28;20200;-62
2021/04/09 01:40:03;;;;;;;1.40;0.20;;;4.90;94.90;;;;;;5071278;28;20185;-62
2021/04/09 01:42:32;;;;;;;1.40;0.20;;;4.80;95.20;;;;;;5081177;28;20181;-62
2021/04/09 01:44:59;;;;;;;1.40;0.20;;;4.80;95.20;;;;;;5075107;28;20180;-62
2021/04/09 01:47:27;;;;;;;1.42;0.20;;;4.80;94.90;;;;;;5073298;28;20219;-62
2021/04/09 01:49:59;;;;;;;1.50;0.20;;;4.80;94.90;;;;;;5080841;28;20212;-62
2021/04/09 01:52:27;;;;;;;1.48;0.20;;;4.80;95.00;;;;;;5076540;28;20179;-62
2021/04/09 01:54:56;;;;;;;1.48;0.20;;;4.80;95.10;;;;;;5072833;28;20184;-62
2021/04/09 01:57:24;;;;;;;1.48;0.20;;;4.60;95.30;;;;;;5079571;28;20188;-61
2021/04/09 01:59:51;;;;;;;1.45;0.20;;;4.60;95.70;;;;;;5078569;28;20180;-62
2021/04/09 02:02:18;;;;;;;1.45;0.20;;;4.50;95.80;;;;;;5077923;28;20543;-61
2021/04/09 02:04:45;;;;;;;1.48;0.20;;;4.50;96.20;;;;;;5083796;28;20317;-62
2021/04/09 02:07:15;;;;;;;1.50;0.20;;;4.50;96.20;;;;;;5076913;28;20286;-62
2021/04/09 02:09:43;;;;;;;1.48;0.20;;;4.50;96.50;;;;;;5068301;28;20680;-62
2021/04/09 02:12:11;;;;;;;1.42;0.20;;;4.40;96.60;;;;;;5078303;28;20675;-62
2021/04/09 02:14:40;;;;;;;1.45;0.20;;;4.40;96.80;;;;;;5086527;28;20244;-62
2021/04/09 02:17:07;;;;;;;1.42;0.20;;;4.40;97.00;;;;;;5077375;28;20231;-63
2021/04/09 02:19:33;;;;;;;2.08;1.40;;;4.40;97.10;;;;;;5059550;28;20189;-63
2021/04/09 02:21:59;;;;;;;1.48;0.20;;;4.30;97.50;;;;;;5090031;28;20191;-62
2021/04/09 02:24:24;;;;;;;1.42;0.20;;;4.20;97.70;;;;;;5080252;28;20199;-63
2021/04/09 02:26:51;;;;;;;1.43;0.20;;;4.30;97.80;;;;;;5101514;28;20193;-63
2021/04/09 02:29:17;;;;;;;1.45;0.20;;;4.20;98.40;;;;;;5072243;28;20208;-62
2021/04/09 02:31:43;;;;;;;1.50;0.20;;;4.20;98.50;;;;;;5079521;28;20267;-63
2021/04/09 02:34:09;;;;;;;1.50;0.30;;;4.20;98.10;;;;;;5080884;28;20173;-62
2021/04/09 02:36:35;;;;;;;1.48;0.30;;;4.20;98.30;;;;;;5086095;28;20699;-62
2021/04/09 02:39:13;;;;;;;1.40;0.20;;;4.20;98.20;;;;;;5055799;28;20413;-62
2021/04/09 02:41:54;;;;;;;1.42;0.20;;;4.30;98.00;;;;;;5076160;28;20195;-62
2021/04/09 02:44:20;;;;;;;1.50;0.20;;;4.30;97.80;;;;;;5088934;28;20325;-62
2021/04/09 02:46:57;;;;;;;1.45;0.20;;;4.30;97.80;;;;;;5096229;28;20233;-62
2021/04/09 02:49:45;;;;;;;1.45;0.20;;;4.30;97.80;;;;;;5091669;28;20212;-62
2021/04/09 02:52:28;;;;;;;1.45;0.20;;;4.10;98.10;;;;;;5084945;28;20248;-62
2021/04/09 02:54:58;;;;;;;1.48;0.20;;;4.10;98.40;;;;;;5101358;28;20264;-63
2021/04/09 02:57:26;;;;;;;1.48;0.20;;;4.10;98.60;;;;;;5091685;28;20211;-62
2021/04/09 02:59:53;;;;;;;1.48;0.28;;;4.00;98.60;;;;;;5087658;28;20242;-62
2021/04/09 03:02:19;;;;;;;1.42;0.20;;;3.90;98.80;;;;;;5076564;28;20219;-62
2021/04/09 03:04:46;;;;;;;1.40;0.20;;;3.80;99.20;;;;;;5080653;28;20193;-62
2021/04/09 03:07:13;;;;;;;1.45;0.20;;;3.90;99.20;;;;;;5079912;28;20197;-62
2021/04/09 03:09:39;;;;;;;1.45;0.20;;;4.00;99.40;;;;;;5094100;28;20203;-62
2021/04/09 03:12:19;;;;;;;1.43;0.20;;;4.00;99.10;;;;;;5092676;28;20192;-62
2021/04/09 03:14:49;;;;;;;1.50;0.20;;;4.00;99.10;;;;;;5078570;28;20188;-62
2021/04/09 03:17:20;;;;;;;1.50;0.20;;;4.00;99.10;;;;;;5083118;28;20200;-62
2021/04/09 03:19:46;;;;;;;1.50;0.20;;;3.90;99.10;;;;;;5085958;28;20280;-62
2021/04/09 03:22:12;;;;;;;1.40;0.20;;;4.00;99.20;;;;;;5077951;28;20183;-62
2021/04/09 03:24:38;;;;;;;1.48;0.20;;;3.90;99.20;;;;;;5085700;28;20223;-62
2021/04/09 03:27:05;;;;;;;1.45;0.20;;;3.90;99.30;;;;;;5063688;28;20200;-62
2021/04/09 03:29:31;;;;;;;1.50;0.20;;;3.90;99.40;;;;;;5077396;28;20219;-62
2021/04/09 03:31:56;;;;;;;1.40;0.20;;;3.80;99.50;;;;;;5081604;28;20220;-62
2021/04/09 03:34:22;;;;;;;1.47;0.20;;;3.80;99.50;;;;;;5077148;28;20180;-62
2021/04/09 03:36:47;;;;;;;1.40;0.20;;;3.80;99.50;;;;;;5075178;28;20543;-62
2021/04/09 03:39:13;;;;;;;1.47;0.20;;;3.80;99.60;;;;;;5082488;28;20531;-62
2021/04/09 03:41:38;;;;;;;1.50;0.30;;;3.70;99.80;;;;;;5077207;28;20267;-61
2021/04/09 03:44:04;;;;;;;1.47;0.20;;;3.70;99.90;;;;;;5073705;28;20197;-62
2021/04/09 03:46:30;;;;;;;1.47;0.20;;;3.60;99.90;;;;;;5063906;28;20191;-62
2021/04/09 03:48:55;;;;;;;1.40;0.20;;;3.60;99.90;;;;;;5074207;28;20605;-62
2021/04/09 03:51:21;;;;;;;1.50;0.20;;;3.60;99.90;;;;;;5056667;28;20805;-62
2021/04/09 03:53:46;;;;;;;16.50;15.50;;;3.60;99.90;;;;;;5085718;28;20184;-62
2021/04/09 03:56:12;;;;;;;1.47;0.20;;;3.50;99.90;;;;;;5082521;28;20183;-62
2021/04/09 03:58:37;;;;;;;1.43;0.20;;;3.50;99.90;;;;;;5071118;28;20204;-62
2021/04/09 04:01:03;;;;;;;1.47;0.20;;;3.40;99.90;;;;;;5048378;28;20191;-62
2021/04/09 04:03:28;;;;;;;1.43;0.20;;;3.50;99.90;;;;;;5085518;28;20539;-62
2021/04/09 04:05:54;;;;;;;1.43;0.20;;;3.50;99.90;;;;;;5069661;28;20188;-62
2021/04/09 04:08:19;;;;;;;1.40;0.20;;;3.50;99.90;;;;;;5074037;28;20675;-62
2021/04/09 04:10:45;;;;;;;1.43;0.20;;;3.50;99.90;;;;;;5075327;28;20181;-62
2021/04/09 04:13:10;;;;;;;1.50;0.20;;;3.40;99.90;;;;;;5071946;28;20628;-61
2021/04/09 04:15:36;;;;;;;1.50;0.30;;;3.40;99.90;;;;;;5078643;28;20185;-62
2021/04/09 04:18:02;;;;;;;1.43;0.20;;;3.40;99.90;;;;;;5081461;28;20204;-61
2021/04/09 04:20:27;;;;;;;1.40;0.20;;;3.40;99.90;;;;;;5072654;28;20188;-61
2021/04/09 04:22:52;;;;;;;1.40;0.20;;;3.40;99.90;;;;;;5064280;28;20588;-62
2021/04/09 04:25:18;;;;;;;1.40;0.20;;;3.40;99.90;;;;;;5078268;28;20279;-62
2021/04/09 04:27:44;;;;;;;1.50;0.30;;;3.50;99.90;;;;;;5071153;28;20215;-62
2021/04/09 04:30:10;;;;;;;1.40;0.20;;;3.40;99.90;;;;;;5079399;28;20267;-62
2021/04/09 04:32:35;;;;;;;1.40;0.20;;;3.40;99.90;;;;;;5061265;28;20712;-62
2021/04/09 04:35:01;;;;;;;1.47;0.20;;;3.40;99.90;;;;;;5073126;28;20185;-62
2021/04/09 04:37:26;;;;;;;1.50;0.20;;;3.40;99.90;;;;;;5078185;28;20727;-62
2021/04/09 04:39:52;;;;;;;1.43;0.20;;;3.50;99.90;;;;;;5047525;28;20177;-62
2021/04/09 04:42:17;;;;;;;1.43;0.20;;;3.50;99.90;;;;;;5075070;28;20224;-62
2021/04/09 04:44:43;;;;;;;1.40;0.20;;;3.60;99.90;;;;;;5084226;28;20189;-62
2021/04/09 04:47:09;;;;;;;1.43;0.20;;;3.60;99.90;;;;;;5084481;28;20200;-62
2021/04/09 04:49:34;;;;;;;1.50;0.20;;;3.50;99.90;;;;;;5078513;28;20295;-62
2021/04/09 04:52:00;;;;;;;1.50;0.20;;;3.60;99.90;;;;;;5079757;28;20526;-62
2021/04/09 04:54:25;;;;;;;1.60;0.30;;;3.60;99.90;;;;;;5083540;28;20194;-62
2021/04/09 04:56:51;;;;;;;1.47;0.20;;;3.60;99.90;;;;;;5071641;28;20259;-62
2021/04/09 04:59:17;;;;;;;1.43;0.20;;;3.60;99.90;;;;;;5071546;28;20277;-62
2021/04/09 05:01:43;;;;;;;1.45;0.20;;;3.60;99.90;;;;;;5079228;28;20739;-62
2021/04/09 05:04:08;;;;;;;1.47;0.20;;;3.60;99.90;;;;;;5074686;28;20268;-62
2021/04/09 05:06:33;;;;;;;1.47;0.20;;;3.60;99.90;;;;;;5074841;28;20185;-62
2021/04/09 05:08:59;;;;;;;1.43;0.20;;;3.60;99.90;;;;;;5086221;28;20606;-62
2021/04/09 05:11:25;;;;;;;1.50;0.20;;;3.60;99.90;;;;;;5076980;28;20296;-63
2021/04/09 05:13:51;;;;;;;1.47;0.20;;;3.60;99.90;;;;;;5084898;28;20219;-63
2021/04/09 05:16:17;;;;;;;1.47;0.20;;;3.60;99.90;;;;;;5091654;28;20251;-62
2021/04/09 05:18:42;;;;;;;1.60;0.60;;;3.50;99.90;;;;;;5068730;28;20471;-62
2021/04/09 05:21:08;;;;;;;1.50;0.20;;;3.50;99.90;;;;;;5070786;28;20192;-62
2021/04/09 05:23:33;;;;;;;1.47;0.20;;;3.50;99.90;;;;;;5087269;28;20184;-62
2021/04/09 05:25:59;;;;;;;1.47;0.20;;;3.50;99.90;;;;;;5075468;28;20191;-63
2021/04/09 05:28:24;;;;;;;1.43;0.20;;;3.60;99.90;;;;;;5078332;28;20209;-62
2021/04/09 05:30:50;;;;;;;1.40;0.20;;;3.50;99.90;;;;;;5074136;28;20180;-62
2021/04/09 05:33:15;;;;;;;1.47;0.20;;;3.50;99.90;;;;;;5074212;28;20207;-62
2021/04/09 05:35:41;;;;;;;1.47;0.20;;;3.50;99.90;;;;;;5083706;28;20196;-63
2021/04/09 05:38:07;;;;;;;1.43;0.20;;;3.50;99.90;;;;;;5078293;28;20554;-62
2021/04/09 05:40:32;;;;;;;1.43;0.20;;;3.50;99.90;;;;;;5072373;28;20184;-63
2021/04/09 05:42:59;;;;;;;1.50;0.43;;;3.50;99.90;;;;;;5073750;28;20184;-63
2021/04/09 05:45:26;;;;;;;1.70;1.00;;;3.50;99.90;;;;;;5080975;28;20187;-62
2021/04/09 05:47:52;;;;;;;1.48;0.20;;;3.40;99.90;;;;;;5068443;28;20259;-62
2021/04/09 05:50:18;;;;;;;3.88;0.93;;;3.50;99.90;;;;;;5070380;28;20513;-62
2021/04/09 05:52:44;;;;;;;1.48;0.20;;;3.40;99.90;;;;;;5090797;28;20184;-62
2021/04/09 05:55:10;;;;;;;1.40;0.20;;;3.50;99.90;;;;;;5074699;28;20693;-62
2021/04/09 05:57:35;;;;;;;1.50;0.20;;;3.50;99.90;;;;;;5077623;28;20222;-62
2021/04/09 06:00:04;;;;;;;1.50;0.20;;;3.50;99.90;;;;;;5083240;28;20179;-62
2021/04/09 06:02:29;;;;;;;1.50;0.30;;;3.50;99.90;;;;;;5075866;28;20190;-62
2021/04/09 06:04:55;;;;;;;3.30;1.07;;;3.60;99.90;;;;;;5078921;28;20188;-61
2021/04/09 06:07:20;;;;;;;1.43;0.20;;;3.60;99.90;;;;;;5073324;28;20242;-62
2021/04/09 06:09:54;;;;;;;2.63;1.40;;;3.70;99.90;;;;;;5091503;28;20212;-62
2021/04/09 06:12:21;;;;;;;1.50;0.20;;;3.70;99.90;;;;;;5088376;28;20603;-62
2021/04/09 06:14:46;;;;;;;5.40;0.85;;;3.70;99.90;;;;;;5083995;28;21339;-61
2021/04/09 06:17:12;;;;;;;3.00;0.87;;;3.80;99.90;;;;;;5066489;28;20238;-62
2021/04/09 06:19:37;;;;;;;1.50;0.33;;;3.90;99.90;;;;;;5070246;28;20192;-61
2021/04/09 06:22:03;;;;;;;1.50;0.20;;;3.90;99.90;;;;;;5071258;28;20678;-62
2021/04/09 06:24:28;;;;;;;3.97;2.43;;;4.00;99.90;;;;;;5073772;28;20252;-61
2021/04/09 06:26:54;;;;;;;2.27;1.13;;;4.10;99.90;;;;;;5059155;28;20640;-62
2021/04/09 06:29:20;;;;;;;2.77;1.70;;;4.00;99.90;;;;;;5066078;28;20211;-61
2021/04/09 06:31:45;;;;;;;3.47;0.77;;;4.10;99.90;;;;;;5074284;28;20837;-61
2021/04/09 06:34:11;;;;;;;6.13;4.00;;;4.10;99.90;;;;;;5070868;28;20207;-62
2021/04/09 06:36:36;;;;;;;6.27;3.43;;;4.20;99.90;;;;;;5072069;28;20192;-62
2021/04/09 06:39:03;;;;;;;7.83;4.20;;;4.30;99.90;;;;;;5069671;28;20216;-61
2021/04/09 06:41:29;;;;;;;1.45;0.20;;;4.30;99.90;;;;;;5071531;28;20250;-61
2021/04/09 06:43:58;;;;;;;3.63;3.10;;;4.30;99.90;;;;;;5072392;28;20192;-62
2021/04/09 06:46:23;;;;;;;1.70;0.73;;;4.40;99.50;;;;;;5073157;28;20410;-62
2021/04/09 06:48:49;;;;;;;1.50;0.30;;;4.50;99.50;;;;;;5051723;28;20307;-61
2021/04/09 06:51:15;;;;;;;1.90;0.60;;;4.50;99.60;;;;;;5074889;28;20215;-61
2021/04/09 06:53:46;;;;;;;1.50;0.20;;;4.60;99.60;;;;;;5077791;28;20184;-64
2021/04/09 06:56:12;;;;;;;4.75;2.55;;;4.70;99.30;;;;;;5069819;28;20230;-61
2021/04/09 06:58:38;;;;;;;1.50;0.40;;;4.70;98.80;;;;;;5075678;28;20257;-62
2021/04/09 07:01:05;;;;;;;1.50;0.40;;;4.80;98.80;;;;;;5080642;28;20565;-61
2021/04/09 07:03:32;;;;;;;2.17;0.85;;;4.90;99.00;;;;;;5071595;28;20197;-61
2021/04/09 07:05:57;;;;;;;3.78;0.50;;;5.00;98.70;;;;;;5059840;28;20188;-61
2021/04/09 07:08:23;;;;;;;1.50;0.20;;;5.20;98.70;;;;;;5082466;28;20226;-61
2021/04/09 07:10:52;;;;;;;9.30;2.33;;;5.30;98.20;;;;;;5075342;28;20197;-60
2021/04/09 07:13:18;;;;;;;1.60;0.40;;;5.40;97.90;;;;;;5073410;28;20215;-60
2021/04/09 07:15:46;;;;;;;1.50;0.20;;;5.60;97.40;;;;;;5080057;28;20184;-62
2021/04/09 07:18:16;;;;;;;2.03;0.55;;;5.70;97.30;;;;;;5078340;28;20293;-60
2021/04/09 07:20:43;;;;;;;2.35;1.75;;;5.80;96.90;;;;;;5074848;28;20184;-59
2021/04/09 07:23:11;;;;;;;1.50;0.20;;;5.90;97.00;;;;;;5079321;28;20176;-61
2021/04/09 07:25:45;;;;;;;1.50;0.20;;;5.90;96.30;;;;;;5070130;28;20189;-60
2021/04/09 07:28:18;;;;;;;1.50;0.20;;;6.10;96.30;;;;;;5070536;28;20216;-59
2021/04/09 07:30:53;;;;;;;1.50;0.20;;;6.10;95.90;;;;;;5076339;28;20185;-61
2021/04/09 07:33:24;;;;;;;1.50;0.20;;;6.20;95.90;;;;;;5076740;28;20177;-61
2021/04/09 07:35:55;;;;;;;5.20;2.45;;;6.30;95.70;;;;;;5079769;28;20194;-61
2021/04/09 07:38:34;;;;;;;1.50;0.20;;;6.30;95.40;;;;;;5073599;28;20213;-61
2021/04/09 07:41:10;;;;;;;1.60;0.30;;;6.40;95.50;;;;;;5079926;28;20184;-62
2021/04/09 07:43:41;;;;;;;1.40;0.20;;;6.50;94.80;;;;;;5076716;28;20659;-61
2021/04/09 07:46:18;;;;;;;1.50;0.22;;;6.50;94.80;;;;;;5071401;28;20191;-59
2021/04/09 07:48:44;;;;;;;3.03;1.33;;;6.50;94.50;;;;;;5086123;28;20211;-59
2021/04/09 07:51:18;;;;;;;1.50;0.20;;;6.60;94.60;;;;;;5074441;28;20203;-59
2021/04/09 07:53:45;;;;;;;1.50;0.20;;;6.70;94.00;;;;;;5073192;28;20779;-60
2021/04/09 07:56:16;;;;;;;2.33;1.20;;;6.70;93.60;;;;;;5079293;28;20183;-62
2021/04/09 07:58:43;;;;;;;4.80;2.00;;;6.80;93.80;;;;;;5073816;28;20215;-62
2021/04/09 08:01:18;;;;;;;2.55;0.95;;;6.90;93.20;;;;;;5077724;28;20193;-61
2021/04/09 08:03:43;;;;;;;2.95;1.55;;;6.90;92.60;;;;;;5077670;28;20681;-62
2021/04/09 08:06:35;;;;;;;1.60;0.50;;;7.10;92.00;;;;;;5059635;28;20212;-61
2021/04/09 08:09:01;;;;;;;3.78;2.15;;;7.20;91.20;;;;;;5077130;28;20290;-61
2021/04/09 08:11:26;;;;;;;1.70;0.30;;;7.20;90.90;;;;;;5068859;28;20204;-58
2021/04/09 08:14:12;;;;;;;1.70;0.30;;;7.20;91.30;;;;;;5078564;28;20483;-59
2021/04/09 08:16:46;;;;;;;4.40;2.53;;;7.20;91.20;;;;;;5072440;28;20605;-60
2021/04/09 08:19:14;;;;;;;6.13;5.68;;;7.20;91.50;;;;;;5073293;28;20516;-60
2021/04/09 08:21:50;;;;;;;1.40;0.20;;;7.20;91.60;;;;;;5085167;28;20244;-59
2021/04/09 08:24:18;;;;;;;2.08;0.57;;;7.10;91.80;;;;;;5080989;28;20188;-59
2021/04/09 08:26:43;;;;;;;2.60;1.65;;;7.20;91.80;;;;;;5073967;28;20184;-60
2021/04/09 08:29:12;;;;;;;1.50;0.40;;;7.30;91.80;;;;;;5073484;28;20200;-60
2021/04/09 08:31:39;;;;;;;2.90;2.23;;;7.40;91.60;;;;;;5047314;28;20193;-59
2021/04/09 08:34:07;;;;;;;1.40;0.20;;;7.40;91.40;;;;;;5074345;28;20441;-60
2021/04/09 08:36:34;;;;;;;2.00;0.70;;;7.40;91.70;;;;;;5078117;28;20222;-60
2021/04/09 08:39:01;;;;;;;1.42;0.20;;;7.50;91.80;;;;;;5074858;28;20554;-60
2021/04/09 08:41:28;;;;;;;1.42;0.20;;;7.60;91.60;;;;;;5074395;28;20181;-60
2021/04/09 08:43:54;;;;;;;3.70;2.23;;;7.70;91.70;;;;;;5086161;28;20196;-60
2021/04/09 08:46:20;;;;;;;1.95;0.85;;;7.80;91.60;;;;;;5072350;28;20446;-60
2021/04/09 08:48:48;;;;;;;1.47;0.20;;;7.90;91.40;;;;;;5079656;28;20230;-60
2021/04/09 08:51:14;;;;;;;1.47;0.27;;;8.00;91.20;;;;;;5099094;28;20454;-59
2021/04/09 08:53:40;;;;;;;1.40;0.20;;;8.10;91.00;;;;;;5081168;28;20857;-59
2021/04/09 08:56:06;;;;;;;18.17;5.10;;;8.20;90.50;;;;;;5059358;28;20316;-62
2021/04/09 08:58:44;;;;;;;1.40;0.20;;;8.30;90.50;;;;;;5060936;28;20211;-62
2021/04/09 09:01:12;;;;;;;1.73;0.30;;;8.50;88.50;;;;;;5073888;28;20443;-62
2021/04/09 09:03:38;;;;;;;4.37;3.03;;;8.60;86.30;;;;;;5068567;28;20435;-60
2021/04/09 09:06:05;;;;;;;1.70;0.60;;;8.70;86.30;;;;;;5072730;28;20449;-60
2021/04/09 09:08:43;;;;;;;2.37;1.00;;;8.80;85.90;;;;;;5072532;28;20683;-61
2021/04/09 09:11:13;;;;;;;1.50;0.47;;;8.90;84.90;;;;;;5070873;28;20437;-61
2021/04/09 09:13:43;;;;;;;1.40;0.20;;;8.90;84.20;;;;;;5069915;28;20447;-59
2021/04/09 09:16:19;;;;;;;1.47;0.27;;;9.00;84.20;;;;;;5072905;28;20431;-62
2021/04/09 09:18:47;;;;;;;3.13;1.57;;;9.10;84.10;;;;;;5076790;28;20461;-61
2021/04/09 09:21:15;;;;;;;1.50;0.20;;;9.20;82.30;;;;;;5076092;28;20532;-62
2021/04/09 09:23:51;;;;;;;2.23;1.23;;;9.30;81.20;;;;;;5085582;28;20431;-61
2021/04/09 09:26:28;;;;;;;1.90;0.50;;;9.40;81.10;;;;;;5077989;28;20442;-61
2021/04/09 09:29:13;;;;;;;1.50;0.20;;;9.50;81.20;;;;;;5070155;28;21037;-61
2021/04/09 09:32:00;;;;;;;3.10;1.23;;;9.60;80.20;;;;;;5075438;28;20442;-63
2021/04/09 09:34:31;;;;;;;1.70;0.67;;;9.60;80.30;;;;;;5080729;28;20442;-66
2021/04/09 09:37:11;;;;;;;1.40;0.20;;;9.70;79.90;;;;;;5080798;28;20449;-66
2021/04/09 09:39:47;;;;;;;1.43;0.20;;;9.70;80.20;;;;;;5083498;28;20433;-65
2021/04/09 09:42:32;;;;;;;5.63;2.63;;;9.70;80.40;;;;;;5076819;28;20449;-65
2021/04/09 09:45:05;;;;;;;7.80;1.70;;;9.90;79.00;;;;;;5077713;28;20439;-64
2021/04/09 09:47:41;;;;;;;5.50;1.77;;;9.90;78.80;;;;;;5068724;28;20471;-63
2021/04/09 09:50:20;;;;;;;2.30;1.10;;;10.00;77.60;;;;;;5070435;28;20892;-61
2021/04/09 09:53:03;;;;;;;2.17;1.00;;;10.10;78.40;;;;;;5075912;28;20191;-61
2021/04/09 09:55:49;;;;;;;2.67;1.90;;;10.20;77.60;;;;;;5072325;28;20521;-60
2021/04/09 09:58:19;;;;;;;1.50;0.40;;;10.20;78.20;;;;;;5069164;28;20450;-60
2021/04/09 10:01:01;;;;;;;1.50;0.30;;;10.30;78.50;;;;;;5069190;28;20446;-60
2021/04/09 10:03:32;;;;;;;6.50;1.90;;;10.30;77.90;;;;;;5075541;28;20473;-60
2021/04/09 10:05:57;;;;;;;1.90;0.73;;;10.30;78.20;;;;;;5075961;28;20480;-61
2021/04/09 10:08:25;;;;;;;2.00;1.30;;;10.40;78.10;;;;;;5074012;28;21027;-61
2021/04/09 10:10:56;;;;;;;3.87;2.07;;;10.60;77.20;;;;;;5082447;28;20172;-59
2021/04/09 10:13:32;;;;;;;1.47;0.20;;;10.90;76.60;;;;;;5072257;28;20489;-61
2021/04/09 10:16:21;;;;;;;7.80;3.10;;;11.00;75.70;;;;;;5064965;28;20525;-62
2021/04/09 10:18:51;;;;;;;1.63;0.37;;;11.10;75.60;;;;;;5069124;28;20514;-62
2021/04/09 10:21:25;;;;;;;3.03;1.67;;;11.10;75.30;;;;;;5084390;28;20438;-62
2021/04/09 10:24:02;;;;;;;6.60;1.90;;;11.10;75.30;;;;;;5072903;28;20433;-59
2021/04/09 10:26:28;;;;;;;1.47;0.27;;;11.30;75.90;;;;;;5078792;28;20434;-59
2021/04/09 10:28:54;;;;;;;1.60;0.60;;;11.30;76.10;;;;;;5076107;28;20468;-61
2021/04/09 10:31:21;;;;;;;3.37;1.90;;;11.30;74.50;;;;;;5061321;28;20996;-61
2021/04/09 10:33:49;;;;;;;1.50;0.40;;;11.30;74.20;;;;;;5074318;28;20192;-61
2021/04/09 10:36:27;;;;;;;8.73;1.60;;;11.30;74.90;;;;;;5079518;28;20779;-61
2021/04/09 10:39:13;;;;;;;1.50;0.20;;;11.30;75.60;;;;;;5082394;28;20496;-60
2021/04/09 10:41:45;;;;;;;7.83;0.97;;;11.30;75.20;;;;;;5078000;28;20795;-61
2021/04/09 10:44:19;;;;;;;2.50;1.13;;;11.30;75.60;;;;;;5080634;28;20443;-61
2021/04/09 10:46:55;;;;;;;1.90;1.03;;;11.40;75.00;;;;;;5081301;28;20534;-61
2021/04/09 10:49:23;;;;;;;1.50;0.20;;;11.50;75.40;;;;;;5071986;28;20467;-61
2021/04/09 10:51:55;;;;;;;1.40;0.20;;;11.70;75.30;;;;;;5079985;28;20450;-61
2021/04/09 10:54:25;;;;;;;1.50;0.40;;;11.80;74.20;;;;;;5076731;28;20442;-61
2021/04/09 10:56:55;;;;;;;2.60;1.43;;;11.80;74.10;;;;;;5079470;28;20510;-61
2021/04/09 10:59:30;;;;;;;1.47;0.20;;;11.90;74.90;;;;;;5077387;28;20849;-61
2021/04/09 11:01:57;;;;;;;2.47;1.23;;;11.90;74.50;;;;;;5081450;28;20553;-60
2021/04/09 11:04:23;;;;;;;1.40;0.20;;;12.00;73.60;;;;;;5072544;28;20458;-60
2021/04/09 11:07:01;;;;;;;3.50;2.20;;;12.00;73.20;;;;;;5073092;28;20511;-60
2021/04/09 11:09:45;;;;;;;1.40;0.20;;;12.00;72.70;;;;;;5083299;28;20458;-60
2021/04/09 11:12:19;;;;;;;1.50;0.20;;;12.10;72.60;;;;;;5075523;28;21230;-60
2021/04/09 11:14:44;;;;;;;1.40;0.20;;;12.20;71.40;;;;;;5074407;28;20435;-61
2021/04/09 11:17:21;;;;;;;1.50;0.20;;;12.20;71.50;;;;;;5086547;28;20469;-60
2021/04/09 11:19:47;;;;;;;5.13;2.03;;;12.20;70.80;;;;;;5090370;28;20180;-61
2021/04/09 11:22:16;;;;;;;4.27;0.93;;;12.30;70.00;;;;;;5100211;28;20425;-61
2021/04/09 11:24:41;;;;;;;1.40;0.20;;;12.40;70.20;;;;;;5086156;28;20180;-60
2021/04/09 11:27:22;;;;;;;1.90;0.73;;;12.50;68.30;;;;;;5084390;28;20510;-62
2021/04/09 11:29:48;;;;;;;1.47;0.20;;;12.50;67.40;;;;;;5090177;28;20201;-60
2021/04/09 11:32:15;;;;;;;1.40;0.20;;;12.50;67.80;;;;;;5079100;28;20439;-60
2021/04/09 11:34:43;;;;;;;2.53;0.83;;;12.50;68.10;;;;;;5078963;28;20474;-62
2021/04/09 11:37:10;;;;;;;1.97;0.70;;;12.60;68.40;;;;;;5076887;28;20456;-60
2021/04/09 11:40:05;;;;;;;2.33;1.23;;;12.70;66.70;;;;;;5076989;28;20455;-60
2021/04/09 11:42:33;;;;;;;4.63;2.10;;;12.70;66.10;;;;;;5072345;28;20451;-63
2021/04/09 11:45:04;;;;;;;4.23;2.63;;;12.80;65.60;;;;;;5076597;28;20461;-63
2021/04/09 11:47:34;;;;;;;1.40;0.20;;;12.80;62.80;;;;;;5073369;28;20880;-62
2021/04/09 11:50:07;;;;;;;3.30;1.70;;;12.80;62.00;;;;;;5085109;28;20525;-63
2021/04/09 11:52:51;;;;;;;2.10;1.03;;;12.90;60.50;;;;;;5085788;28;20454;-61
2021/04/09 11:55:17;;;;;;;1.97;0.70;;;13.00;60.90;;;;;;5090602;28;20427;-61
2021/04/09 11:57:43;;;;;;;1.50;0.30;;;13.10;60.90;;;;;;5078146;28;20451;-61
2021/04/09 12:00:24;;;;;;;6.07;2.70;;;13.20;61.10;;;;;;5077312;28;20469;-61
2021/04/09 12:02:58;;;;;;;1.40;0.20;;;13.20;59.60;;;;;;5074271;28;21544;-61
2021/04/09 12:05:26;;;;;;;3.33;2.07;;;13.20;59.00;;;;;;5073526;28;20463;-62
2021/04/09 12:07:51;;;;;;;1.80;0.60;;;13.20;58.80;;;;;;5075279;28;20528;-62
2021/04/09 12:10:19;;;;;;;1.70;0.77;;;13.30;59.10;;;;;;5074793;28;20946;-61
2021/04/09 12:12:44;;;;;;;8.77;2.90;;;13.50;59.50;;;;;;5073264;28;20627;-61
2021/04/09 12:15:11;;;;;;;3.30;2.27;;;13.50;58.80;;;;;;5076564;28;20483;-61
2021/04/09 12:17:37;;;;;;;2.27;0.83;;;13.50;59.00;;;;;;5081729;28;20219;-61
2021/04/09 12:20:10;;;;;;;1.83;0.77;;;13.50;59.10;;;;;;5070064;28;20465;-61
2021/04/09 12:22:36;;;;;;;1.50;0.20;;;13.50;59.00;;;;;;5074874;28;20461;-60
2021/04/09 12:25:03;;;;;;;4.80;1.23;;;13.40;59.00;;;;;;5076268;28;20785;-60
2021/04/09 12:27:29;;;;;;;1.40;0.30;;;13.40;58.90;;;;;;5071501;28;20470;-60
2021/04/09 12:29:54;;;;;;;1.70;0.70;;;13.50;58.90;;;;;;5077752;28;20457;-61
2021/04/09 12:32:20;;;;;;;2.83;1.33;;;13.50;59.20;;;;;;5105070;22;20234;-59
2021/04/09 12:34:45;;;;;;;8.13;2.80;;;13.60;58.80;;;;;;5093255;28;20601;-62
2021/04/09 12:37:11;;;;;;;9.00;3.03;;;13.50;58.40;;;;;;5090724;28;20313;-62
2021/04/09 12:39:36;;;;;;;1.43;0.20;;;13.50;58.90;;;;;;5095177;28;20200;-62
2021/04/09 12:42:03;;;;;;;1.50;0.20;;;13.60;59.00;;;;;;5106906;28;20231;-62
2021/04/09 12:44:29;;;;;;;3.83;2.33;;;13.60;58.90;;;;;;5107700;28;20177;-62
2021/04/09 12:46:54;;;;;;;1.50;0.30;;;13.60;58.40;;;;;;5106180;28;20441;-62
2021/04/09 12:49:21;;;;;;;1.87;0.70;;;13.60;58.60;;;;;;5107070;28;20462;-57
2021/04/09 12:51:50;;;;;;;1.40;0.20;;;13.60;58.30;;;;;;5101618;28;20275;-57
2021/04/09 12:54:16;;;;;;;4.73;2.90;;;13.60;57.90;;;;;;5072878;28;20433;-58
2021/04/09 12:56:42;;;;;;;2.50;1.27;;;13.70;57.70;;;;;;5096616;28;20453;-58
2021/04/09 12:59:08;;;;;;;8.40;2.53;;;13.70;57.20;;;;;;5099690;28;20176;-58
2021/04/09 13:01:33;;;;;;;2.53;0.57;;;13.90;57.30;;;;;;5092828;28;20469;-57
2021/04/09 13:03:59;;;;;;;1.40;0.20;;;14.00;56.70;;;;;;5091628;28;20257;-58
2021/04/09 13:06:25;;;;;;;2.30;0.90;;;14.00;56.90;;;;;;5091960;28;20191;-58